createdAt,value
2018-02-20T00:02:24.930Z,33.27
2018-02-20T00:04:51.386Z,59.67
2018-02-20T00:07:18.612Z,49.10
2018-02-20T00:09:45.040Z,48.13
2018-02-20T00:12:11.457Z,52.47
2018-02-20T00:14:37.939Z,40.97
2018-02-20T00:17:04.890Z,38.73
2018-02-20T00:19:31.348Z,41.87
2018-02-20T00:21:58.536Z,42.90
2018-02-20T00:24:25.730Z,38.83
2018-02-20T00:26:52.155Z,42.67
2018-02-20T00:29:18.583Z,39.57
2018-02-20T00:31:45.759Z,46.75
2018-02-20T00:34:12.928Z,46.43
2018-02-20T00:36:39.380Z,34.13
2018-02-20T00:39:06.139Z,43.90
2018-02-20T00:41:32.586Z,47.53
2018-02-20T00:43:59.711Z,50.80
2018-02-20T00:46:26.897Z,46.53
2018-02-20T00:48:53.501Z,47.83
2018-02-20T00:51:19.920Z,40.92
2018-02-20T00:53:46.342Z,46.08
2018-02-20T00:56:13.099Z,43.10
2018-02-20T00:58:39.535Z,44.75
2018-02-20T01:01:06.004Z,45.05
2018-02-20T01:03:32.648Z,42.60
2018-02-20T01:06:05.977Z,48.90
2018-02-20T01:08:32.407Z,41.30
2018-02-20T01:10:58.851Z,46.83
2018-02-20T01:13:25.347Z,39.13
2018-02-20T01:15:51.846Z,47.05
2018-02-20T01:18:18.320Z,39.08
2018-02-20T01:20:44.783Z,33.63
2018-02-20T01:23:11.256Z,37.55
2018-02-20T01:25:38.036Z,47.20
2018-02-20T01:28:05.194Z,45.40
2018-02-20T01:30:32.408Z,43.00
2018-02-20T01:32:58.879Z,38.85
2018-02-20T01:35:25.337Z,54.20
2018-02-20T01:37:51.808Z,49.05
2018-02-20T01:40:18.388Z,45.78
2018-02-20T01:42:44.909Z,54.03
2018-02-20T01:45:11.426Z,54.53
2018-02-20T01:47:37.915Z,47.78
2018-02-20T01:50:05.742Z,40.10
2018-02-20T01:52:32.231Z,44.53
2018-02-20T01:54:58.655Z,48.35
2018-02-20T01:57:25.834Z,59.75
2018-02-20T01:59:52.364Z,67.68
2018-02-20T02:02:19.552Z,48.08
2018-02-20T02:04:46.063Z,59.72
2018-02-20T02:07:13.607Z,49.05
2018-02-20T02:09:40.072Z,48.03
2018-02-20T02:12:07.439Z,56.63
2018-02-20T02:14:34.693Z,57.08
2018-02-20T02:17:01.128Z,55.63
2018-02-20T02:19:27.716Z,63.47
2018-02-20T02:21:54.239Z,49.42
2018-02-20T02:24:20.663Z,53.00
2018-02-20T02:26:47.121Z,40.67
2018-02-20T02:29:13.538Z,55.85
2018-02-20T02:31:40.066Z,53.87
2018-02-20T02:34:06.595Z,59.00
2018-02-20T02:36:33.785Z,56.35
2018-02-20T02:39:00.280Z,50.90
2018-02-20T02:41:26.768Z,40.70
2018-02-20T02:43:53.907Z,47.42
2018-02-20T02:46:21.071Z,62.58
2018-02-20T02:48:48.238Z,58.10
2018-02-20T02:51:14.667Z,51.28
2018-02-20T02:53:42.037Z,67.78
2018-02-20T02:56:08.569Z,55.30
2018-02-20T02:58:35.011Z,63.08
2018-02-20T03:01:01.445Z,73.00
2018-02-20T03:03:28.658Z,67.53
2018-02-20T03:05:55.136Z,51.45
2018-02-20T03:08:21.595Z,61.88
2018-02-20T03:10:48.840Z,56.55
2018-02-20T03:13:15.245Z,60.35
2018-02-20T03:15:41.744Z,84.93
2018-02-20T03:18:08.412Z,57.15
2018-02-20T03:20:35.581Z,58.20
2018-02-20T03:23:03.102Z,58.33
2018-02-20T03:25:29.645Z,59.42
2018-02-20T03:27:56.100Z,69.80
2018-02-20T03:30:24.061Z,73.82
2018-02-20T03:32:50.512Z,62.08
2018-02-20T03:35:16.983Z,65.95
2018-02-20T03:37:43.416Z,53.33
2018-02-20T03:40:09.851Z,67.85
2018-02-20T03:42:36.332Z,57.15
2018-02-20T03:45:04.058Z,60.85
2018-02-20T03:47:30.511Z,79.45
2018-02-20T03:49:56.915Z,80.50
2018-02-20T03:52:24.091Z,105.82
2018-02-20T03:54:50.675Z,86.70
2018-02-20T03:57:17.112Z,75.37
2018-02-20T03:59:43.531Z,70.47
2018-02-20T04:02:10.011Z,67.22
2018-02-20T04:04:36.536Z,81.43
2018-02-20T04:07:03.503Z,52.42
2018-02-20T04:09:29.975Z,74.03
2018-02-20T04:11:57.160Z,70.05
2018-02-20T04:14:24.319Z,84.82
2018-02-20T04:16:51.482Z,59.40
2018-02-20T04:19:18.665Z,69.62
2018-02-20T04:21:45.189Z,56.53
2018-02-20T04:24:11.668Z,90.97
2018-02-20T04:26:38.097Z,62.03
2018-02-20T04:29:05.178Z,62.33
2018-02-20T04:31:32.388Z,57.20
2018-02-20T04:33:58.843Z,79.60
2018-02-20T04:36:25.302Z,77.40
2018-02-20T04:38:51.754Z,70.43
2018-02-20T04:41:18.207Z,72.78
2018-02-20T04:43:44.623Z,71.78
2018-02-20T04:46:11.134Z,73.28
2018-02-20T04:48:38.456Z,63.03
2018-02-20T04:51:05.306Z,66.82
2018-02-20T04:53:31.770Z,73.32
2018-02-20T04:55:58.262Z,65.28
2018-02-20T04:58:24.755Z,63.17
2018-02-20T05:00:52.007Z,50.92
2018-02-20T05:03:18.430Z,52.30
2018-02-20T05:05:44.847Z,71.25
2018-02-20T05:08:11.387Z,54.88
2018-02-20T05:10:38.534Z,59.70
2018-02-20T05:13:06.013Z,66.43
2018-02-20T05:15:33.174Z,48.60
2018-02-20T05:18:00.358Z,55.72
2018-02-20T05:20:26.792Z,54.13
2018-02-20T05:22:53.198Z,58.85
2018-02-20T05:25:19.734Z,61.00
2018-02-20T05:27:46.155Z,55.78
2018-02-20T05:30:12.606Z,81.18
2018-02-20T05:32:39.073Z,73.50
2018-02-20T05:35:06.012Z,62.60
2018-02-20T05:37:32.423Z,48.72
2018-02-20T05:39:58.834Z,63.92
2018-02-20T05:42:26.068Z,69.95
2018-02-20T05:44:53.280Z,88.32
2018-02-20T05:47:19.712Z,97.57
2018-02-20T05:49:46.276Z,97.40
2018-02-20T05:52:12.693Z,86.97
2018-02-20T05:54:39.870Z,99.87
2018-02-20T05:57:07.068Z,75.62
2018-02-20T05:59:33.646Z,106.10
2018-02-20T06:02:00.914Z,85.12
2018-02-20T06:04:28.369Z,79.05
2018-02-20T06:06:57.779Z,94.75
2018-02-20T06:09:26.310Z,84.20
2018-02-20T06:11:53.371Z,83.00
2018-02-20T06:14:23.728Z,68.72
2018-02-20T06:16:51.197Z,83.10
2018-02-20T06:19:18.598Z,86.40
2018-02-20T06:21:47.305Z,95.10
2018-02-20T06:24:16.094Z,68.57
2018-02-20T06:26:44.719Z,70.37
2018-02-20T06:29:12.473Z,81.20
2018-02-20T06:31:40.164Z,75.50
2018-02-20T06:34:09.008Z,82.20
2018-02-20T06:36:40.086Z,61.83
2018-02-20T06:39:09.415Z,65.05
2018-02-20T06:41:36.967Z,73.60
2018-02-20T06:44:04.871Z,85.22
2018-02-20T06:46:36.645Z,84.57
2018-02-20T06:49:08.946Z,81.65
2018-02-20T06:51:36.926Z,80.40
2018-02-20T06:54:04.905Z,85.20
2018-02-20T06:56:33.498Z,102.93
2018-02-20T06:59:02.569Z,103.97
2018-02-20T07:01:31.491Z,85.97
2018-02-20T07:03:58.627Z,131.77
2018-02-20T07:06:26.049Z,96.35
2018-02-20T07:08:52.839Z,93.62
2018-02-20T07:11:19.640Z,93.57
2018-02-20T07:13:47.043Z,105.25
2018-02-20T07:16:14.774Z,103.75
2018-02-20T07:18:42.328Z,89.60
2018-02-20T07:21:09.963Z,120.97
2018-02-20T07:23:43.646Z,122.93
2018-02-20T07:26:11.054Z,92.53
2018-02-20T07:28:37.695Z,114.28
2018-02-20T07:31:04.872Z,137.02
2018-02-20T07:33:32.969Z,112.35
2018-02-20T07:35:59.661Z,105.60
2018-02-20T07:38:26.209Z,111.68
2018-02-20T07:40:52.849Z,112.03
2018-02-20T07:43:19.408Z,117.03
2018-02-20T07:45:46.737Z,93.82
2018-02-20T07:48:13.341Z,116.53
2018-02-20T07:50:40.707Z,107.75
2018-02-20T07:53:08.327Z,128.87
2018-02-20T07:55:34.957Z,130.20
2018-02-20T07:58:01.738Z,111.20
2018-02-20T08:00:28.581Z,128.32
2018-02-20T08:02:59.212Z,128.62
2018-02-20T08:05:26.640Z,121.25
2018-02-20T08:07:54.663Z,138.98
2018-02-20T08:10:21.338Z,167.85
2018-02-20T08:12:47.955Z,152.73
2018-02-20T08:15:14.636Z,166.52
2018-02-20T08:17:41.298Z,149.87
2018-02-20T08:20:08.224Z,196.73
2018-02-20T08:22:34.967Z,152.10
2018-02-20T08:25:01.554Z,142.57
2018-02-20T08:27:28.228Z,164.67
2018-02-20T08:29:55.318Z,146.20
2018-02-20T08:32:22.226Z,122.93
2018-02-20T08:34:53.068Z,116.60
2018-02-20T08:37:21.036Z,95.30
2018-02-20T08:39:48.512Z,84.63
2018-02-20T08:42:15.131Z,79.07
2018-02-20T08:44:44.910Z,65.03
2018-02-20T08:47:12.998Z,65.57
2018-02-20T08:49:39.516Z,66.40
2018-02-20T08:52:06.351Z,66.33
2018-02-20T08:54:33.759Z,67.33
2018-02-20T08:57:00.470Z,56.43
2018-02-20T08:59:26.999Z,57.07
2018-02-20T09:01:53.663Z,65.23
2018-02-20T09:04:21.001Z,56.83
2018-02-20T09:06:47.601Z,72.47
2018-02-20T09:09:14.982Z,59.40
2018-02-20T09:11:42.417Z,57.23
2018-02-20T09:14:09.713Z,63.97
2018-02-20T09:16:37.297Z,66.30
2018-02-20T09:19:03.971Z,51.87
2018-02-20T09:21:31.347Z,54.53
2018-02-20T09:23:58.075Z,54.80
2018-02-20T09:26:25.347Z,51.43
2018-02-20T09:28:52.336Z,55.90
2018-02-20T09:31:18.897Z,45.47
2018-02-20T09:33:45.872Z,45.47
2018-02-20T09:36:13.271Z,51.03
2018-02-20T09:38:40.546Z,50.97
2018-02-20T09:41:07.857Z,44.33
2018-02-20T09:43:34.589Z,48.13
2018-02-20T09:46:01.377Z,48.87
2018-02-20T09:48:28.730Z,46.17
2018-02-20T09:50:56.153Z,47.47
2018-02-20T09:53:23.522Z,50.13
2018-02-20T09:55:53.075Z,57.00
2018-02-20T09:58:25.137Z,47.50
2018-02-20T10:00:51.774Z,49.93
2018-02-20T10:03:18.416Z,56.03
2018-02-20T10:05:45.157Z,58.20
2018-02-20T10:08:12.558Z,65.03
2018-02-20T10:10:40.332Z,53.23
2018-02-20T10:13:14.709Z,59.20
2018-02-20T10:15:41.945Z,55.43
2018-02-20T10:18:08.687Z,48.83
2018-02-20T10:20:35.429Z,52.47
2018-02-20T10:23:04.007Z,63.57
2018-02-20T10:25:30.836Z,50.60
2018-02-20T10:27:58.020Z,52.47
2018-02-20T10:30:29.638Z,52.93
2018-02-20T10:32:56.492Z,51.70
2018-02-20T10:35:24.024Z,47.17
2018-02-20T10:37:53.367Z,54.43
2018-02-20T10:40:20.480Z,50.50
2018-02-20T10:42:47.806Z,42.20
2018-02-20T10:45:14.694Z,48.87
2018-02-20T10:47:42.244Z,59.23
2018-02-20T10:50:10.064Z,48.70
2018-02-20T10:52:37.062Z,50.27
2018-02-20T10:55:04.157Z,55.53
2018-02-20T10:57:34.184Z,48.33
2018-02-20T11:00:00.826Z,51.10
2018-02-20T11:02:27.403Z,48.33
2018-02-20T11:04:55.533Z,49.77
2018-02-20T11:07:22.459Z,53.60
2018-02-20T11:09:49.892Z,50.33
2018-02-20T11:12:17.742Z,51.03
2018-02-20T11:14:45.042Z,51.33
2018-02-20T11:17:12.638Z,60.10
2018-02-20T11:19:39.831Z,40.00
2018-02-20T11:22:06.538Z,49.83
2018-02-20T11:24:35.856Z,43.07
2018-02-20T11:27:02.877Z,48.70
2018-02-20T11:29:29.443Z,46.57
2018-02-20T11:31:56.093Z,46.73
2018-02-20T11:34:24.560Z,46.33
2018-02-20T11:36:51.795Z,50.60
2018-02-20T11:39:18.450Z,52.87
2018-02-20T11:41:45.232Z,43.90
2018-02-20T11:44:11.920Z,44.77
2018-02-20T11:46:39.413Z,48.30
2018-02-20T11:49:07.188Z,45.83
2018-02-20T11:51:33.870Z,44.90
2018-02-20T11:54:04.562Z,57.13
2018-02-20T11:56:36.309Z,46.33
2018-02-20T11:59:04.968Z,41.67
2018-02-20T12:01:33.039Z,51.83
2018-02-20T12:04:00.706Z,42.77
2018-02-20T12:06:39.065Z,46.20
2018-02-20T12:09:06.130Z,65.87
2018-02-20T12:11:32.848Z,46.40
2018-02-20T12:14:02.126Z,50.70
2018-02-20T12:16:29.059Z,50.53
2018-02-20T12:18:55.613Z,88.83
2018-02-20T12:21:22.843Z,44.77
2018-02-20T12:23:51.514Z,37.83
2018-02-20T12:26:20.199Z,41.90
2018-02-20T12:28:46.841Z,48.80
2018-02-20T12:31:14.150Z,49.30
2018-02-20T12:33:41.178Z,50.07
2018-02-20T12:36:07.907Z,50.90
2018-02-20T12:38:34.690Z,49.33
2018-02-20T12:41:02.070Z,50.50
2018-02-20T12:43:28.726Z,50.40
2018-02-20T12:45:55.451Z,48.53
2018-02-20T12:48:23.670Z,52.50
2018-02-20T12:50:51.150Z,45.60
2018-02-20T12:53:19.086Z,49.03
2018-02-20T12:55:47.069Z,51.77
2018-02-20T12:58:14.578Z,50.93
2018-02-20T13:00:41.871Z,54.77
2018-02-20T13:03:08.475Z,48.60
2018-02-20T13:05:36.277Z,54.93
2018-02-20T13:08:03.734Z,44.80
2018-02-20T13:10:30.329Z,42.90
2018-02-20T13:12:58.061Z,39.33
2018-02-20T13:15:31.866Z,44.93
2018-02-20T13:18:03.497Z,47.60
2018-02-20T13:20:37.382Z,41.07
2018-02-20T13:23:15.535Z,49.77
2018-02-20T13:25:45.139Z,45.30
2018-02-20T13:28:12.492Z,39.70
2018-02-20T13:30:44.338Z,50.03
2018-02-20T13:33:19.495Z,42.40
2018-02-20T13:35:48.981Z,44.07
2018-02-20T13:38:15.530Z,50.20
2018-02-20T13:40:43.053Z,46.53
2018-02-20T13:43:09.810Z,49.13
2018-02-20T13:45:45.603Z,47.37
2018-02-20T13:48:16.132Z,53.13
2018-02-20T13:50:43.149Z,58.93
2018-02-20T13:53:10.719Z,50.00
2018-02-20T13:55:38.153Z,50.13
2018-02-20T13:58:13.265Z,47.47
2018-02-20T14:00:40.842Z,48.53
2018-02-20T14:03:07.416Z,39.43
2018-02-20T14:05:36.376Z,51.47
2018-02-20T14:08:03.635Z,45.33
2018-02-20T14:10:30.263Z,44.40
2018-02-20T14:12:58.071Z,44.03
2018-02-20T14:15:24.549Z,40.37
2018-02-20T14:17:52.165Z,42.20
2018-02-20T14:20:18.761Z,46.23
2018-02-20T14:22:46.167Z,27.93
2018-02-20T14:25:12.738Z,24.83
2018-02-20T14:27:39.950Z,28.40
2018-02-20T14:30:07.067Z,31.10
2018-02-20T14:32:43.134Z,28.93
2018-02-20T14:35:11.991Z,30.53
2018-02-20T14:37:44.407Z,33.80
2018-02-20T14:40:11.113Z,38.60
2018-02-20T14:42:37.696Z,35.37
2018-02-20T14:45:11.477Z,33.33
2018-02-20T14:47:47.291Z,30.60
2018-02-20T14:50:15.151Z,32.33
2018-02-20T14:52:45.133Z,31.67
2018-02-20T14:55:12.366Z,31.87
2018-02-20T14:57:42.940Z,31.80
2018-02-20T15:00:17.486Z,29.37
2018-02-20T15:02:46.530Z,31.10
2018-02-20T15:05:13.147Z,29.57
2018-02-20T15:07:39.871Z,27.40
2018-02-20T15:10:07.121Z,32.47
2018-02-20T15:12:34.037Z,33.47
2018-02-20T15:15:02.367Z,27.23
2018-02-20T15:17:31.428Z,33.73
2018-02-20T15:19:59.122Z,30.60
2018-02-20T15:22:27.688Z,26.87
2018-02-20T15:24:54.280Z,33.50
2018-02-20T15:27:23.666Z,35.07
2018-02-20T15:29:50.260Z,27.70
2018-02-20T15:32:19.977Z,31.60
2018-02-20T15:34:46.941Z,30.47
2018-02-20T15:37:14.298Z,28.67
2018-02-20T15:39:40.915Z,39.60
2018-02-20T15:42:14.503Z,20.97
2018-02-20T15:44:42.536Z,29.67
2018-02-20T15:47:09.230Z,27.10
2018-02-20T15:49:36.975Z,29.70
2018-02-20T15:52:07.089Z,34.27
2018-02-20T15:54:34.582Z,37.30
2018-02-20T15:57:04.346Z,35.93
2018-02-20T15:59:31.841Z,35.57
2018-02-20T16:01:59.950Z,35.20
2018-02-20T16:04:30.090Z,32.37
2018-02-20T16:07:03.093Z,29.73
2018-02-20T16:09:37.581Z,30.77
2018-02-20T16:12:08.000Z,28.47
2018-02-20T16:14:37.149Z,32.63
2018-02-20T16:17:06.658Z,30.97
2018-02-20T16:19:34.423Z,28.50
2018-02-20T16:22:04.167Z,30.43
2018-02-20T16:24:31.516Z,36.50
2018-02-20T16:27:06.182Z,36.23
2018-02-20T16:29:38.114Z,35.83
2018-02-20T16:32:07.147Z,46.33
2018-02-20T16:34:36.623Z,49.60
2018-02-20T16:37:05.878Z,41.17
2018-02-20T16:39:34.411Z,46.83
2018-02-20T16:42:01.030Z,32.10
2018-02-20T16:44:30.034Z,40.57
2018-02-20T16:47:03.238Z,29.23
2018-02-20T16:49:32.815Z,39.30
2018-02-20T16:51:59.563Z,35.07
2018-02-20T16:54:26.580Z,34.03
2018-02-20T16:56:53.227Z,34.13
2018-02-20T16:59:20.974Z,33.27
2018-02-20T17:01:48.268Z,34.83
2018-02-20T17:04:16.672Z,44.13
2018-02-20T17:06:43.333Z,29.67
2018-02-20T17:09:11.209Z,26.90
2018-02-20T17:11:40.170Z,32.93
2018-02-20T17:14:08.140Z,32.90
2018-02-20T17:16:37.881Z,31.90
2018-02-20T17:19:05.369Z,37.10
2018-02-20T17:21:32.798Z,37.67
2018-02-20T17:24:01.093Z,34.70
2018-02-20T17:26:28.781Z,32.43
2018-02-20T17:28:56.396Z,35.73
2018-02-20T17:31:22.895Z,36.10
2018-02-20T17:33:49.489Z,31.90
2018-02-20T17:36:16.868Z,35.50
2018-02-20T17:38:43.395Z,34.40
2018-02-20T17:41:09.909Z,30.40
2018-02-20T17:43:36.362Z,32.93
2018-02-20T17:46:03.322Z,33.73
2018-02-20T17:48:30.555Z,30.40
2018-02-20T17:50:57.058Z,31.57
2018-02-20T17:53:24.266Z,28.27
2018-02-20T17:55:50.679Z,38.17
2018-02-20T17:58:17.857Z,36.70
2018-02-20T18:00:44.323Z,34.97
2018-02-20T18:03:10.858Z,46.37
2018-02-20T18:05:37.350Z,31.17
2018-02-20T18:08:05.421Z,32.37
2018-02-20T18:10:32.689Z,29.80
2018-02-20T18:12:59.991Z,43.33
2018-02-20T18:15:26.547Z,31.63
2018-02-20T18:17:53.075Z,33.80
2018-02-20T18:20:19.693Z,43.20
2018-02-20T18:22:47.110Z,38.17
2018-02-20T18:25:13.635Z,36.77
2018-02-20T18:27:40.835Z,39.53
2018-02-20T18:30:07.764Z,41.07
2018-02-20T18:32:34.251Z,39.47
2018-02-20T18:35:00.704Z,39.70
2018-02-20T18:37:27.903Z,43.83
2018-02-20T18:39:54.319Z,35.07
2018-02-20T18:42:21.612Z,39.40
2018-02-20T18:44:48.083Z,45.50
2018-02-20T18:47:14.567Z,36.13
2018-02-20T18:49:41.826Z,43.57
2018-02-20T18:52:08.350Z,49.30
2018-02-20T18:54:35.662Z,29.90
2018-02-20T18:57:02.287Z,36.30
2018-02-20T18:59:29.493Z,40.93
2018-02-20T19:01:55.934Z,40.80
2018-02-20T19:04:23.896Z,45.90
2018-02-20T19:06:50.401Z,42.87
2018-02-20T19:09:17.622Z,39.87
2018-02-20T19:11:44.596Z,45.30
2018-02-20T19:14:11.109Z,42.27
2018-02-20T19:16:37.558Z,43.87
2018-02-20T19:19:04.662Z,53.83
2018-02-20T19:21:31.221Z,52.40
2018-02-20T19:23:58.498Z,50.53
2018-02-20T19:26:25.748Z,43.90
2018-02-20T19:28:52.198Z,43.37
2018-02-20T19:31:19.472Z,48.07
2018-02-20T19:33:49.066Z,32.90
2018-02-20T19:36:15.562Z,51.27
2018-02-20T19:38:42.023Z,50.27
2018-02-20T19:41:08.487Z,44.60
2018-02-20T19:43:35.675Z,51.13
2018-02-20T19:46:02.192Z,37.90
2018-02-20T19:48:28.716Z,51.23
2018-02-20T19:50:55.156Z,44.13
2018-02-20T19:53:21.598Z,44.13
2018-02-20T19:55:48.055Z,37.10
2018-02-20T19:58:14.571Z,42.83
2018-02-20T20:00:41.072Z,46.00
2018-02-20T20:03:08.579Z,37.90
2018-02-20T20:05:35.061Z,47.30
2018-02-20T20:08:01.516Z,43.07
2018-02-20T20:10:27.971Z,52.40
2018-02-20T20:12:55.244Z,43.17
2018-02-20T20:15:21.642Z,40.22
2018-02-20T20:17:48.229Z,55.65
2018-02-20T20:20:14.776Z,47.63
2018-02-20T20:22:41.315Z,41.40
2018-02-20T20:25:07.772Z,51.47
2018-02-20T20:27:34.228Z,54.87
2018-02-20T20:30:01.448Z,50.00
2018-02-20T20:32:28.675Z,51.83
2018-02-20T20:34:55.148Z,56.67
2018-02-20T20:37:21.627Z,47.43
2018-02-20T20:39:48.835Z,54.20
2018-02-20T20:42:15.284Z,51.73
2018-02-20T20:44:41.745Z,47.17
2018-02-20T20:47:09.763Z,51.13
2018-02-20T20:49:36.217Z,51.92
2018-02-20T20:52:03.130Z,43.40
2018-02-20T20:54:29.694Z,50.30
2018-02-20T20:56:56.426Z,55.33
2018-02-20T20:59:23.702Z,55.37
2018-02-20T21:01:50.960Z,117.75
2018-02-20T21:04:17.423Z,84.80
2018-02-20T21:06:43.858Z,80.20
2018-02-20T21:09:10.310Z,68.10
2018-02-20T21:11:37.493Z,73.57
2018-02-20T21:14:05.114Z,86.47
2018-02-20T21:16:32.408Z,70.90
2018-02-20T21:18:58.860Z,63.55
2018-02-20T21:21:25.401Z,90.87
2018-02-20T21:23:51.910Z,111.78
2018-02-20T21:26:18.532Z,65.93
2018-02-20T21:28:45.027Z,87.60
2018-02-20T21:31:12.395Z,63.33
2018-02-20T21:33:38.947Z,67.70
2018-02-20T21:36:05.870Z,66.82
2018-02-20T21:38:32.474Z,58.17
2018-02-20T21:40:58.991Z,61.20
2018-02-20T21:43:26.232Z,67.82
2018-02-20T21:45:53.512Z,55.95
2018-02-20T21:48:20.819Z,56.27
2018-02-20T21:50:47.312Z,59.50
2018-02-20T21:53:13.869Z,58.33
2018-02-20T21:55:40.391Z,54.65
2018-02-20T21:58:07.261Z,47.67
2018-02-20T22:00:35.158Z,54.65
2018-02-20T22:03:01.615Z,67.03
2018-02-20T22:05:28.103Z,77.62
2018-02-20T22:07:54.573Z,72.93
2018-02-20T22:10:21.100Z,87.93
2018-02-20T22:12:47.539Z,60.10
2018-02-20T22:15:14.044Z,59.03
2018-02-20T22:17:41.272Z,71.50
2018-02-20T22:20:07.718Z,60.63
2018-02-20T22:22:34.945Z,57.58
2018-02-20T22:25:01.449Z,61.78
2018-02-20T22:27:27.891Z,51.83
2018-02-20T22:29:54.423Z,61.33
2018-02-20T22:32:20.885Z,64.12
2018-02-20T22:34:47.584Z,56.65
2018-02-20T22:37:14.123Z,61.40
2018-02-20T22:39:40.559Z,57.00
2018-02-20T22:42:07.378Z,57.67
2018-02-20T22:44:33.831Z,54.55
2018-02-20T22:47:00.269Z,62.33
2018-02-20T22:49:26.811Z,59.67
2018-02-20T22:51:53.247Z,44.60
2018-02-20T22:54:20.428Z,52.83
2018-02-20T22:56:46.888Z,64.10
2018-02-20T22:59:13.322Z,52.43
2018-02-20T23:01:39.804Z,55.65
2018-02-20T23:04:06.892Z,60.25
2018-02-20T23:06:33.369Z,63.40
2018-02-20T23:08:59.799Z,52.95
2018-02-20T23:11:38.652Z,57.77
2018-02-20T23:14:05.622Z,56.05
2018-02-20T23:16:32.647Z,63.27
2018-02-20T23:18:59.138Z,53.78
2018-02-20T23:21:25.588Z,54.63
2018-02-20T23:23:52.759Z,64.78
2018-02-20T23:26:19.199Z,58.53
2018-02-20T23:28:46.418Z,64.10
2018-02-20T23:31:12.892Z,71.30
2018-02-20T23:33:39.345Z,71.50
2018-02-20T23:36:06.478Z,70.22
2018-02-20T23:38:34.419Z,86.60
2018-02-20T23:41:00.859Z,64.80
2018-02-20T23:43:27.298Z,79.55
2018-02-20T23:45:53.801Z,78.80
2018-02-20T23:48:20.232Z,76.68
2018-02-20T23:50:46.698Z,63.72
2018-02-20T23:53:14.820Z,67.72
2018-02-20T23:55:41.227Z,77.35
2018-02-20T23:58:08.642Z,66.90
